Time;durP1;ratioP1;P1;durP2;ratioP2;P2;SDS_P1;SDS_P2;PMS_P1;PMS_P2;Temp;Humidity;BMP_temperature;BMP_pressure;BME280_temperature;BME280_humidity;BME280_pressure;Samples;Min_cycle;Max_cycle;Signal;HPM_P1;HPM_P2
2021/11/19 00:00:07;;;;;;;2.75;1.80;;;21.40;53.80;;;;;;5062592;28;20093;-54
2021/11/19 00:02:34;;;;;;;2.38;1.50;;;21.30;53.20;;;;;;5036796;28;20133;-58
2021/11/19 00:05:00;;;;;;;1.85;1.30;;;21.30;53.20;;;;;;5039814;28;20037;-57
2021/11/19 00:07:26;;;;;;;2.70;1.80;;;21.30;53.20;;;;;;5041598;28;20084;-61
2021/11/19 00:09:51;;;;;;;2.90;1.90;;;21.30;53.30;;;;;;5036327;28;20013;-56
2021/11/19 00:12:17;;;;;;;4.03;1.90;;;21.30;53.20;;;;;;5039286;28;20033;-58
2021/11/19 00:14:43;;;;;;;2.72;1.73;;;21.30;53.20;;;;;;5039709;28;20029;-57
2021/11/19 00:17:09;;;;;;;3.35;1.98;;;21.30;53.20;;;;;;5039299;28;20156;-59
2021/11/19 00:19:42;;;;;;;3.00;1.85;;;21.30;53.20;;;;;;5038781;28;20504;-55
2021/11/19 00:22:09;;;;;;;3.78;1.90;;;21.30;53.20;;;;;;5033705;28;20060;-59
2021/11/19 00:24:36;;;;;;;4.20;1.90;;;21.30;53.20;;;;;;5036456;28;20037;-60
2021/11/19 00:27:03;;;;;;;3.50;1.90;;;21.30;53.20;;;;;;5036645;28;20461;-58
2021/11/19 00:29:29;;;;;;;2.97;1.80;;;21.30;53.20;;;;;;5039612;28;20063;-58
2021/11/19 00:31:55;;;;;;;4.93;1.90;;;21.20;53.20;;;;;;5037642;28;20041;-60
2021/11/19 00:34:21;;;;;;;3.13;1.70;;;21.20;53.20;;;;;;5038288;28;20033;-59
2021/11/19 00:36:47;;;;;;;3.72;1.90;;;21.20;53.20;;;;;;5039690;28;20714;-60
2021/11/19 00:39:16;;;;;;;3.00;2.03;;;21.20;53.20;;;;;;5035014;28;20524;-59
2021/11/19 00:41:44;;;;;;;2.95;1.70;;;21.20;53.20;;;;;;5036646;28;20025;-60
2021/11/19 00:44:11;;;;;;;3.95;1.73;;;21.20;53.20;;;;;;5040366;28;20482;-59
2021/11/19 00:46:38;;;;;;;2.53;1.65;;;21.20;53.20;;;;;;5037578;28;20053;-61
2021/11/19 00:49:05;;;;;;;2.97;1.70;;;21.20;53.20;;;;;;5040214;28;20094;-52
2021/11/19 00:51:36;;;;;;;3.25;1.73;;;21.20;53.20;;;;;;5036274;28;20108;-61
2021/11/19 00:54:03;;;;;;;2.75;1.60;;;21.20;53.20;;;;;;5031690;28;20132;-61
2021/11/19 00:56:32;;;;;;;3.50;1.70;;;21.10;53.20;;;;;;5037986;28;20048;-61
2021/11/19 00:58:59;;;;;;;3.95;1.80;;;21.10;53.20;;;;;;5032296;28;20033;-58
2021/11/19 01:01:31;;;;;;;3.50;1.80;;;21.10;53.20;;;;;;5032980;28;20041;-60
2021/11/19 01:04:01;;;;;;;2.72;1.65;;;21.10;53.20;;;;;;5034893;28;20055;-60
2021/11/19 01:06:28;;;;;;;2.70;1.60;;;21.10;53.20;;;;;;5036364;28;20033;-55
2021/11/19 01:08:55;;;;;;;3.35;2.00;;;21.10;53.20;;;;;;5031819;28;20056;-59
2021/11/19 01:11:22;;;;;;;2.53;1.50;;;21.10;53.20;;;;;;5037160;28;20029;-60
2021/11/19 01:13:51;;;;;;;2.97;1.80;;;21.10;53.20;;;;;;5033090;28;20041;-61
2021/11/19 01:16:27;;;;;;;3.63;2.00;;;21.10;53.20;;;;;;5042052;28;20048;-61
2021/11/19 01:18:56;;;;;;;2.45;1.40;;;21.10;53.20;;;;;;5034941;28;20083;-55
2021/11/19 01:21:30;;;;;;;2.38;1.65;;;21.00;53.20;;;;;;5038457;28;20420;-60
2021/11/19 01:23:56;;;;;;;3.00;1.90;;;21.10;53.20;;;;;;5030370;28;20116;-58
2021/11/19 01:26:26;;;;;;;3.60;1.77;;;21.00;53.20;;;;;;5036389;28;20087;-60
2021/11/19 01:28:55;;;;;;;2.70;1.55;;;21.00;53.20;;;;;;5035398;28;20028;-59
2021/11/19 01:31:29;;;;;;;3.20;1.70;;;21.00;53.20;;;;;;5035339;28;20092;-60
2021/11/19 01:33:55;;;;;;;2.83;1.70;;;21.00;53.20;;;;;;5035239;28;20525;-57
2021/11/19 01:36:21;;;;;;;2.80;1.80;;;21.00;53.30;;;;;;5037874;28;20024;-59
2021/11/19 01:38:47;;;;;;;2.63;1.80;;;21.00;53.20;;;;;;5032933;28;20781;-58
2021/11/19 01:41:18;;;;;;;3.65;1.95;;;21.00;53.30;;;;;;5036187;28;20108;-58
2021/11/19 01:43:44;;;;;;;2.67;1.60;;;21.00;53.30;;;;;;5031860;28;20029;-57
2021/11/19 01:46:13;;;;;;;3.45;1.80;;;21.00;53.30;;;;;;5037737;28;20075;-60
2021/11/19 01:48:41;;;;;;;2.85;1.73;;;21.00;53.30;;;;;;5034074;28;20033;-60
2021/11/19 01:51:30;;;;;;;2.70;1.70;;;20.90;53.20;;;;;;5037308;28;20049;-60
2021/11/19 01:54:07;;;;;;;3.22;1.60;;;20.90;53.20;;;;;;5028041;28;20033;-60
2021/11/19 01:56:43;;;;;;;3.35;1.60;;;20.90;53.20;;;;;;5031465;28;20120;-56
2021/11/19 01:59:11;;;;;;;3.10;1.88;;;21.00;53.30;;;;;;5034625;28;20041;-61
2021/11/19 02:01:54;;;;;;;2.47;1.50;;;20.90;53.30;;;;;;5034404;28;20043;-60
2021/11/19 02:04:23;;;;;;;2.00;1.50;;;20.90;53.30;;;;;;5035673;28;20652;-56
2021/11/19 02:07:05;;;;;;;2.95;1.60;;;20.90;53.30;;;;;;5035167;28;20128;-61
2021/11/19 02:10:10;;;;;;;2.42;1.42;;;20.90;53.30;;;;;;5033292;28;20042;-61
2021/11/19 02:12:47;;;;;;;2.70;1.70;;;20.90;53.30;;;;;;5040531;28;20078;-55
2021/11/19 02:15:19;;;;;;;2.40;1.60;;;20.90;53.30;;;;;;5033169;28;20037;-60
2021/11/19 02:17:50;;;;;;;2.83;1.70;;;20.90;53.30;;;;;;5041594;28;20044;-56
2021/11/19 02:20:26;;;;;;;2.30;1.40;;;20.90;53.30;;;;;;5036063;28;20573;-54
2021/11/19 02:22:56;;;;;;;2.70;1.80;;;20.80;53.30;;;;;;5030731;28;20040;-60
2021/11/19 02:25:31;;;;;;;2.83;1.60;;;20.80;53.30;;;;;;5030482;28;20142;-60
2021/11/19 02:28:04;;;;;;;3.00;1.60;;;20.90;53.40;;;;;;5033736;28;20115;-56
2021/11/19 02:30:34;;;;;;;2.45;1.70;;;20.80;53.30;;;;;;5032527;28;20025;-55
2021/11/19 02:33:07;;;;;;;3.28;1.67;;;20.80;53.30;;;;;;5035575;28;20029;-61
2021/11/19 02:35:39;;;;;;;2.40;1.60;;;20.80;53.30;;;;;;5031313;28;20033;-60
2021/11/19 02:38:12;;;;;;;2.60;1.60;;;20.80;53.40;;;;;;5035813;28;20029;-57
2021/11/19 02:40:41;;;;;;;2.35;1.65;;;20.80;53.40;;;;;;5029024;28;20017;-58
2021/11/19 02:43:16;;;;;;;2.30;1.50;;;20.80;53.40;;;;;;5039841;28;20074;-61
2021/11/19 02:45:45;;;;;;;2.30;1.45;;;20.80;53.40;;;;;;5034962;28;20401;-61
2021/11/19 02:48:16;;;;;;;2.33;1.50;;;20.80;53.40;;;;;;5036560;28;20025;-58
2021/11/19 02:50:43;;;;;;;3.75;1.60;;;20.80;53.40;;;;;;5035511;28;20140;-57
2021/11/19 02:53:11;;;;;;;2.45;1.45;;;20.80;53.40;;;;;;5035514;28;20087;-58
2021/11/19 02:55:40;;;;;;;2.15;1.40;;;20.70;53.40;;;;;;5033328;28;20046;-58
2021/11/19 02:58:09;;;;;;;2.47;1.40;;;20.70;53.40;;;;;;5035866;28;20028;-58
2021/11/19 03:00:41;;;;;;;;;;;20.70;53.40;;;;;;5030673;28;20049;-54
2021/11/19 03:03:06;;;;;;;2.33;1.60;;;20.70;53.40;;;;;;5031801;28;20383;-59
2021/11/19 03:05:32;;;;;;;2.45;1.50;;;20.70;53.30;;;;;;5032421;28;20033;-57
2021/11/19 03:07:58;;;;;;;2.67;1.55;;;20.70;53.40;;;;;;5039644;28;20037;-58
2021/11/19 03:10:36;;;;;;;2.30;1.50;;;20.70;53.40;;;;;;5034669;28;20742;-55
2021/11/19 03:13:05;;;;;;;2.47;1.40;;;20.70;53.40;;;;;;5033020;28;20037;-58
2021/11/19 03:15:34;;;;;;;2.03;1.38;;;20.70;53.40;;;;;;5030156;28;20033;-58
2021/11/19 03:18:01;;;;;;;2.60;1.60;;;20.70;53.40;;;;;;5040861;28;20080;-58
2021/11/19 03:20:27;;;;;;;2.70;1.65;;;20.60;53.30;;;;;;5038257;28;20032;-58
2021/11/19 03:22:54;;;;;;;2.30;1.50;;;20.70;53.50;;;;;;5029440;28;20565;-54
2021/11/19 03:25:27;;;;;;;2.15;1.50;;;20.70;53.40;;;;;;5029669;28;20108;-58
2021/11/19 03:27:54;;;;;;;2.08;1.58;;;20.60;53.40;;;;;;5032007;28;20036;-59
2021/11/19 03:30:21;;;;;;;2.25;1.30;;;20.60;53.40;;;;;;5032102;28;20207;-60
2021/11/19 03:32:48;;;;;;;2.28;1.40;;;20.60;53.40;;;;;;5030695;28;20057;-61
2021/11/19 03:35:16;;;;;;;2.70;1.60;;;20.60;53.40;;;;;;5032828;28;20018;-59
2021/11/19 03:37:44;;;;;;;1.85;1.30;;;20.60;53.40;;;;;;5028111;28;20021;-61
2021/11/19 03:40:12;;;;;;;2.25;1.45;;;20.60;53.40;;;;;;5027956;28;20124;-61
2021/11/19 03:42:38;;;;;;;2.28;1.55;;;20.60;53.40;;;;;;5030491;28;20017;-61
2021/11/19 03:45:07;;;;;;;2.08;1.40;;;20.60;53.40;;;;;;5030115;28;20040;-60
2021/11/19 03:47:39;;;;;;;2.00;1.40;;;20.60;53.50;;;;;;5038160;28;20848;-60
2021/11/19 03:50:10;;;;;;;2.20;1.50;;;20.60;53.50;;;;;;5029673;28;21804;-54
2021/11/19 03:52:38;;;;;;;3.35;1.40;;;20.60;53.50;;;;;;5032225;28;20037;-58
2021/11/19 03:55:09;;;;;;;2.78;1.52;;;20.60;53.50;;;;;;5032292;28;20584;-58
2021/11/19 03:57:35;;;;;;;1.90;1.30;;;20.60;53.50;;;;;;5031100;28;20090;-58
2021/11/19 04:00:01;;;;;;;2.75;1.40;;;20.60;53.50;;;;;;5032284;28;20108;-53
2021/11/19 04:02:28;;;;;;;2.03;1.40;;;20.60;54.00;;;;;;5030724;28;20894;-57
2021/11/19 04:04:54;;;;;;;2.67;1.67;;;20.60;53.50;;;;;;5029448;28;20029;-58
2021/11/19 04:07:21;;;;;;;2.70;1.42;;;20.50;53.50;;;;;;5037347;28;20079;-56
2021/11/19 04:09:49;;;;;;;2.35;1.50;;;20.50;53.50;;;;;;5031485;28;20037;-57
2021/11/19 04:12:19;;;;;;;2.60;1.70;;;20.50;53.50;;;;;;5031873;28;20044;-58
2021/11/19 04:14:45;;;;;;;2.60;1.40;;;20.50;53.50;;;;;;5034072;28;20053;-60
2021/11/19 04:17:11;;;;;;;2.20;1.38;;;20.50;53.50;;;;;;5033250;28;20086;-60
2021/11/19 04:19:37;;;;;;;2.08;1.45;;;20.50;54.00;;;;;;5032564;28;20040;-56
2021/11/19 04:22:09;;;;;;;2.53;1.45;;;20.50;53.50;;;;;;5029784;28;20120;-60
2021/11/19 04:24:39;;;;;;;1.90;1.20;;;20.50;53.50;;;;;;5028816;28;20052;-60
2021/11/19 04:27:06;;;;;;;2.20;1.20;;;20.50;53.50;;;;;;5029745;28;20025;-61
2021/11/19 04:29:32;;;;;;;2.03;1.30;;;20.50;53.50;;;;;;5032856;28;20029;-59
2021/11/19 04:31:58;;;;;;;2.10;1.38;;;20.50;53.50;;;;;;5032637;28;20125;-60
2021/11/19 04:34:25;;;;;;;2.33;1.33;;;20.50;53.50;;;;;;5030335;28;20095;-57
2021/11/19 04:36:51;;;;;;;1.80;1.10;;;20.50;53.50;;;;;;5032447;28;20500;-53
2021/11/19 04:39:16;;;;;;;2.13;1.40;;;20.50;53.50;;;;;;5029273;28;20671;-55
2021/11/19 04:41:43;;;;;;;2.47;1.30;;;20.50;53.50;;;;;;5031292;28;20033;-57
2021/11/19 04:44:09;;;;;;;1.92;1.20;;;20.50;53.60;;;;;;5029962;28;20072;-58
2021/11/19 04:46:36;;;;;;;2.13;1.38;;;20.50;53.60;;;;;;5032003;28;20037;-58
2021/11/19 04:49:02;;;;;;;2.47;1.42;;;20.50;53.60;;;;;;5036485;28;20877;-53
2021/11/19 04:51:33;;;;;;;1.95;1.42;;;20.50;53.60;;;;;;5043962;28;20029;-60
2021/11/19 04:53:59;;;;;;;1.83;1.23;;;20.50;53.60;;;;;;5034996;28;20024;-58
2021/11/19 04:56:25;;;;;;;2.03;1.20;;;20.40;53.60;;;;;;5033355;28;20044;-58
2021/11/19 04:58:52;;;;;;;1.95;1.35;;;20.40;53.60;;;;;;5035672;28;20032;-57
2021/11/19 05:01:37;;;;;;;2.38;1.40;;;20.40;53.60;;;;;;5033495;28;20580;-57
2021/11/19 05:04:04;;;;;;;1.60;1.10;;;20.40;53.60;;;;;;5036447;28;20029;-60
2021/11/19 05:06:30;;;;;;;1.90;1.30;;;20.40;53.60;;;;;;5038750;28;20534;-58
2021/11/19 05:08:56;;;;;;;2.47;1.35;;;20.40;53.60;;;;;;5029175;28;20172;-62
2021/11/19 05:11:29;;;;;;;1.70;1.30;;;20.40;53.60;;;;;;5036976;28;20473;-61
2021/11/19 05:13:56;;;;;;;2.08;1.30;;;20.40;53.60;;;;;;5037585;28;20038;-60
2021/11/19 05:16:22;;;;;;;1.95;1.20;;;20.40;53.60;;;;;;5037180;28;20029;-58
2021/11/19 05:18:47;;;;;;;1.70;1.20;;;20.40;53.70;;;;;;5034238;28;20469;-55
2021/11/19 05:21:16;;;;;;;2.30;1.17;;;20.40;53.60;;;;;;5034066;28;20044;-60
2021/11/19 05:23:43;;;;;;;1.65;1.20;;;20.40;53.70;;;;;;5029981;28;20032;-62
2021/11/19 05:26:09;;;;;;;1.85;1.10;;;20.40;53.70;;;;;;5034114;28;20038;-60
2021/11/19 05:28:35;;;;;;;2.00;1.35;;;20.40;53.70;;;;;;5039853;28;20055;-61
2021/11/19 05:31:03;;;;;;;1.75;1.20;;;20.40;53.70;;;;;;5036115;28;20337;-58
2021/11/19 05:33:30;;;;;;;1.60;1.10;;;20.40;53.70;;;;;;5035276;28;20032;-61
2021/11/19 05:35:56;;;;;;;2.00;1.15;;;20.40;53.80;;;;;;5038567;28;20048;-60
2021/11/19 05:38:24;;;;;;;1.80;1.25;;;20.40;53.70;;;;;;5036130;28;20690;-60
2021/11/19 05:40:50;;;;;;;1.63;1.20;;;20.40;53.70;;;;;;5035325;28;20590;-57
2021/11/19 05:43:16;;;;;;;2.03;1.30;;;20.40;53.80;;;;;;5037450;28;20112;-59
2021/11/19 05:45:42;;;;;;;1.50;1.20;;;20.40;53.80;;;;;;5036460;28;20162;-57
2021/11/19 05:48:08;;;;;;;1.95;1.20;;;20.40;53.80;;;;;;5032114;28;20151;-60
2021/11/19 05:50:36;;;;;;;1.48;1.05;;;20.40;53.80;;;;;;5031865;28;20125;-59
2021/11/19 05:53:03;;;;;;;1.80;1.20;;;20.40;53.80;;;;;;5035203;28;20112;-56
2021/11/19 05:55:32;;;;;;;1.83;1.20;;;20.40;53.80;;;;;;5036762;28;20028;-55
2021/11/19 05:57:58;;;;;;;1.88;1.20;;;20.40;53.80;;;;;;5031689;28;20050;-57
2021/11/19 06:00:33;;;;;;;1.70;1.20;;;20.40;53.80;;;;;;5034666;28;20127;-57
2021/11/19 06:02:59;;;;;;;1.85;1.10;;;20.40;53.80;;;;;;5034015;28;20061;-58
2021/11/19 06:05:24;;;;;;;1.70;1.30;;;20.40;54.00;;;;;;5037441;28;20060;-57
2021/11/19 06:07:50;;;;;;;1.40;1.08;;;20.40;53.90;;;;;;5034057;28;20021;-58
2021/11/19 06:10:18;;;;;;;1.70;1.10;;;20.30;53.90;;;;;;5035088;28;20060;-57
2021/11/19 06:12:49;;;;;;;1.80;1.20;;;20.30;53.90;;;;;;5034161;28;20037;-58
2021/11/19 06:15:26;;;;;;;1.75;1.13;;;20.30;53.90;;;;;;5041236;28;20059;-57
2021/11/19 06:18:00;;;;;;;2.17;1.30;;;20.40;54.00;;;;;;5034118;28;20114;-54
2021/11/19 06:20:31;;;;;;;2.08;1.10;;;20.30;53.90;;;;;;5038349;28;20059;-55
2021/11/19 06:23:02;;;;;;;1.65;1.20;;;20.30;53.90;;;;;;5032548;28;20048;-58
2021/11/19 06:25:31;;;;;;;1.92;1.15;;;20.30;53.90;;;;;;5029499;28;20430;-58
2021/11/19 06:28:00;;;;;;;1.17;0.95;;;20.30;53.90;;;;;;5036336;28;20044;-57
2021/11/19 06:30:27;;;;;;;2.83;1.30;;;20.30;53.90;;;;;;5031668;28;20049;-58
2021/11/19 06:32:53;;;;;;;1.95;1.20;;;20.30;54.00;;;;;;5032031;28;20034;-58
2021/11/19 06:35:19;;;;;;;2.13;1.20;;;20.30;54.00;;;;;;5037408;28;20033;-58
2021/11/19 06:37:45;;;;;;;1.23;0.90;;;20.30;54.00;;;;;;5037750;28;20031;-54
2021/11/19 06:40:16;;;;;;;2.08;1.17;;;20.30;54.00;;;;;;5028892;28;20164;-53
2021/11/19 06:42:41;;;;;;;2.22;1.30;;;20.30;54.00;;;;;;5031549;28;20067;-58
2021/11/19 06:45:07;;;;;;;2.15;1.27;;;20.30;54.00;;;;;;5035135;28;20049;-58
2021/11/19 06:47:33;;;;;;;1.90;1.20;;;20.30;54.00;;;;;;5034449;28;20701;-58
2021/11/19 06:49:59;;;;;;;2.25;1.17;;;20.30;54.00;;;;;;5033033;28;20396;-58
2021/11/19 06:52:25;;;;;;;1.98;1.20;;;20.30;54.00;;;;;;5032665;28;20039;-59
2021/11/19 06:54:50;;;;;;;1.73;1.15;;;20.30;54.00;;;;;;5034021;28;20866;-58
2021/11/19 06:57:16;;;;;;;1.65;1.17;;;20.30;54.10;;;;;;5030387;28;20083;-58
2021/11/19 06:59:43;;;;;;;1.35;1.00;;;20.30;54.00;;;;;;5032708;28;20186;-54
2021/11/19 07:02:10;;;;;;;1.83;1.10;;;20.30;54.10;;;;;;5030887;28;20175;-58
2021/11/19 07:04:37;;;;;;;1.85;1.10;;;20.30;54.10;;;;;;5033679;28;20029;-56
2021/11/19 07:07:06;;;;;;;2.03;1.20;;;20.30;54.00;;;;;;5039319;28;20033;-54
2021/11/19 07:09:32;;;;;;;;;;;20.30;54.10;;;;;;5029819;28;20041;-57
2021/11/19 07:12:00;;;;;;;1.80;1.10;;;20.30;54.10;;;;;;5034520;28;20404;-57
2021/11/19 07:14:25;;;;;;;2.20;1.10;;;20.30;54.10;;;;;;5026750;28;20041;-59
2021/11/19 07:16:51;;;;;;;2.05;1.10;;;20.30;54.10;;;;;;5032632;28;20048;-58
2021/11/19 07:19:17;;;;;;;1.65;1.15;;;20.20;54.00;;;;;;5032974;28;20102;-58
2021/11/19 07:21:42;;;;;;;1.90;1.00;;;20.20;54.00;;;;;;5036965;28;20527;-57
2021/11/19 07:24:08;;;;;;;1.92;1.00;;;20.30;54.10;;;;;;5029681;28;20037;-57
2021/11/19 07:26:34;;;;;;;1.50;1.10;;;20.20;54.00;;;;;;5027999;28;20040;-58
2021/11/19 07:29:00;;;;;;;2.70;1.40;;;20.20;54.10;;;;;;5026028;28;20021;-57
2021/11/19 07:31:27;;;;;;;3.17;1.50;;;20.30;55.20;;;;;;5026763;28;20045;-60
2021/11/19 07:33:52;;;;;;;1.85;1.33;;;20.40;55.10;;;;;;5027206;28;20079;-58
2021/11/19 07:36:21;;;;;;;2.03;1.23;;;20.50;54.80;;;;;;5032394;28;20060;-59
2021/11/19 07:38:47;;;;;;;1.88;1.15;;;20.60;54.30;;;;;;5027304;28;20029;-57
2021/11/19 07:41:14;;;;;;;2.30;1.30;;;20.70;54.20;;;;;;5034696;28;20099;-57
2021/11/19 07:43:41;;;;;;;2.00;1.45;;;20.70;54.10;;;;;;5030955;28;20205;-60
2021/11/19 07:46:08;;;;;;;2.10;1.20;;;20.80;54.00;;;;;;5033182;28;20026;-60
2021/11/19 07:48:36;;;;;;;2.10;1.40;;;20.90;53.90;;;;;;5035230;28;20037;-60
2021/11/19 07:51:05;;;;;;;4.20;1.35;;;21.00;53.70;;;;;;5029882;28;20037;-60
2021/11/19 07:53:31;;;;;;;2.42;1.40;;;21.10;53.60;;;;;;5029256;28;20033;-60
2021/11/19 07:55:57;;;;;;;1.90;1.25;;;21.30;53.40;;;;;;5034167;28;20097;-60
2021/11/19 07:58:25;;;;;;;2.47;1.40;;;21.50;53.00;;;;;;5031127;28;20037;-60
2021/11/19 08:00:51;;;;;;;1.92;1.35;;;21.60;52.70;;;;;;5033470;28;20238;-60
2021/11/19 08:03:17;;;;;;;2.10;1.40;;;21.70;52.30;;;;;;5027051;28;20033;-59
2021/11/19 08:05:48;;;;;;;2.60;1.27;;;21.80;52.20;;;;;;5030495;28;20473;-59
2021/11/19 08:08:13;;;;;;;2.25;1.33;;;21.90;51.90;;;;;;5033706;28;20032;-59
2021/11/19 08:10:39;;;;;;;1.70;1.20;;;22.00;51.60;;;;;;5029435;28;20434;-59
2021/11/19 08:13:05;;;;;;;3.03;1.30;;;22.20;51.40;;;;;;5031778;28;20030;-60
2021/11/19 08:15:33;;;;;;;2.17;1.20;;;22.20;51.20;;;;;;5028363;28;20110;-59
2021/11/19 08:18:01;;;;;;;1.80;1.20;;;22.20;51.20;;;;;;5027286;28;20605;-58
2021/11/19 08:20:31;;;;;;;1.73;1.10;;;22.30;51.10;;;;;;5027536;28;20033;-59
2021/11/19 08:22:56;;;;;;;1.88;1.10;;;22.30;51.00;;;;;;5039036;28;20624;-59
2021/11/19 08:25:24;;;;;;;1.95;1.20;;;22.40;51.00;;;;;;5039486;28;20029;-59
2021/11/19 08:27:53;;;;;;;2.25;1.40;;;22.50;51.20;;;;;;5036809;28;20025;-56
2021/11/19 08:30:25;;;;;;;2.58;1.23;;;22.70;51.40;;;;;;5034041;28;20017;-59
2021/11/19 08:32:50;;;;;;;2.45;1.30;;;23.00;51.30;;;;;;5038948;28;20029;-59
2021/11/19 08:35:16;;;;;;;3.28;1.30;;;23.20;51.00;;;;;;5033812;28;20106;-59
2021/11/19 08:37:42;;;;;;;2.00;1.30;;;23.50;50.90;;;;;;5035790;28;20037;-60
2021/11/19 08:40:11;;;;;;;1.45;0.90;;;23.70;50.80;;;;;;5032596;28;20517;-59
2021/11/19 08:42:37;;;;;;;1.00;0.70;;;23.70;50.60;;;;;;5033032;28;20048;-58
2021/11/19 08:45:04;;;;;;;1.08;0.70;;;23.50;51.10;;;;;;5033176;28;20033;-58
2021/11/19 08:47:31;;;;;;;1.27;0.80;;;23.50;51.40;;;;;;5037575;28;20041;-59
2021/11/19 08:49:58;;;;;;;1.55;1.00;;;23.40;51.90;;;;;;5033210;28;20120;-60
2021/11/19 08:52:23;;;;;;;1.00;0.80;;;23.40;52.10;;;;;;5037780;28;20038;-58
2021/11/19 08:54:50;;;;;;;1.35;0.90;;;23.40;52.30;;;;;;5034144;28;20158;-59
2021/11/19 08:57:19;;;;;;;1.30;0.82;;;23.30;52.50;;;;;;5031049;28;20159;-60
2021/11/19 08:59:47;;;;;;;2.25;0.80;;;23.30;52.70;;;;;;5035633;28;20026;-59
2021/11/19 09:02:16;;;;;;;1.13;0.77;;;23.30;52.70;;;;;;5033177;28;20373;-59
2021/11/19 09:04:41;;;;;;;1.33;0.80;;;23.30;52.60;;;;;;5034798;28;20033;-59
2021/11/19 09:07:07;;;;;;;1.35;0.88;;;23.30;52.50;;;;;;5036446;28;20047;-59
2021/11/19 09:09:33;;;;;;;1.52;0.80;;;23.30;52.50;;;;;;5030848;28;20032;-58
2021/11/19 09:11:59;;;;;;;1.75;0.80;;;23.40;52.50;;;;;;5033605;28;20040;-56
2021/11/19 09:14:25;;;;;;;1.10;0.80;;;23.30;52.40;;;;;;5037094;28;20132;-57
2021/11/19 09:17:03;;;;;;;1.40;0.80;;;23.40;52.70;;;;;;5034824;28;20209;-59
2021/11/19 09:19:36;;;;;;;1.98;0.80;;;23.40;52.70;;;;;;5034580;28;20030;-60
2021/11/19 09:22:31;;;;;;;1.65;0.80;;;23.40;53.10;;;;;;5033802;28;20711;-56
2021/11/19 09:24:58;;;;;;;1.10;0.90;;;23.40;53.30;;;;;;5029174;28;20025;-60
2021/11/19 09:27:25;;;;;;;1.00;0.80;;;23.40;53.80;;;;;;5035671;28;20061;-59
2021/11/19 09:30:14;;;;;;;1.17;0.90;;;23.50;53.30;;;;;;5035316;28;20021;-57
2021/11/19 09:32:40;;;;;;;1.70;0.77;;;23.50;53.30;;;;;;5037362;28;20381;-58
2021/11/19 09:35:06;;;;;;;0.95;0.77;;;23.50;53.20;;;;;;5031665;28;20045;-59
2021/11/19 09:37:32;;;;;;;1.35;0.93;;;23.50;53.70;;;;;;5034695;28;20071;-59
2021/11/19 09:39:58;;;;;;;2.45;0.80;;;23.50;53.50;;;;;;5035745;28;20468;-60
2021/11/19 09:42:35;;;;;;;0.82;0.65;;;23.50;53.50;;;;;;5036782;28;20044;-59
2021/11/19 09:45:29;;;;;;;1.08;0.80;;;23.50;53.30;;;;;;5035533;28;20178;-57
2021/11/19 09:48:12;;;;;;;0.95;0.70;;;23.50;53.00;;;;;;5033047;28;20025;-59
2021/11/19 09:51:26;;;;;;;1.17;0.80;;;23.50;53.20;;;;;;5037079;28;20039;-59
2021/11/19 09:54:15;;;;;;;1.05;0.80;;;23.50;53.00;;;;;;5014485;28;20065;-59
2021/11/19 09:56:41;;;;;;;;;;;23.50;53.10;;;;;;5037815;28;20410;-58
2021/11/19 09:59:44;;;;;;;1.05;0.75;;;23.60;53.10;;;;;;5040896;28;19919;-55
2021/11/19 10:02:36;;;;;;;1.50;0.70;;;23.50;53.20;;;;;;5032698;28;20102;-59
2021/11/19 10:05:26;;;;;;;1.67;0.80;;;23.60;53.30;;;;;;5035958;28;20033;-57
2021/11/19 10:08:03;;;;;;;0.90;0.60;;;23.60;53.50;;;;;;5032817;28;20021;-59
2021/11/19 10:10:34;;;;;;;2.05;0.80;;;23.60;53.40;;;;;;5032476;28;20465;-59
2021/11/19 10:13:28;;;;;;;0.98;0.80;;;23.60;53.30;;;;;;5030636;28;20044;-58
2021/11/19 10:16:03;;;;;;;0.75;0.70;;;23.60;53.20;;;;;;5044412;28;20025;-59
2021/11/19 10:18:37;;;;;;;1.13;0.80;;;23.60;53.30;;;;;;5032129;28;20071;-58
2021/11/19 10:21:06;;;;;;;0.90;0.70;;;23.60;53.50;;;;;;5034089;28;20040;-59
2021/11/19 10:23:39;;;;;;;1.05;0.70;;;23.60;53.30;;;;;;5034266;28;20028;-54
2021/11/19 10:26:20;;;;;;;1.08;0.70;;;23.70;53.50;;;;;;5034160;28;20057;-60
2021/11/19 10:28:51;;;;;;;0.73;0.73;;;23.70;53.50;;;;;;5034995;28;20025;-57
2021/11/19 10:31:22;;;;;;;1.00;0.70;;;23.70;53.50;;;;;;5032190;28;20706;-56
2021/11/19 10:34:09;;;;;;;0.90;0.70;;;23.70;53.40;;;;;;5035116;28;20029;-59
2021/11/19 10:36:43;;;;;;;0.88;0.70;;;23.70;53.40;;;;;;5030740;28;20048;-59
2021/11/19 10:39:33;;;;;;;0.80;0.60;;;23.70;53.30;;;;;;5028942;28;20620;-57
2021/11/19 10:42:27;;;;;;;0.82;0.73;;;23.70;53.30;;;;;;5032554;28;20697;-56
2021/11/19 10:45:41;;;;;;;1.42;0.80;;;23.70;53.50;;;;;;5036893;28;20032;-58
2021/11/19 10:48:06;;;;;;;0.60;0.60;;;23.80;53.40;;;;;;5011368;28;20026;-59
2021/11/19 10:51:11;;;;;;;0.98;0.70;;;23.70;53.40;;;;;;5033431;28;20056;-56
2021/11/19 10:53:46;;;;;;;0.88;0.70;;;23.70;53.40;;;;;;5018338;28;20052;-58
2021/11/19 10:56:51;;;;;;;1.45;0.70;;;23.70;53.30;;;;;;5035450;28;20025;-59
2021/11/19 10:59:20;;;;;;;0.60;0.60;;;23.80;53.20;;;;;;5007231;28;20055;-59
2021/11/19 11:02:00;;;;;;;0.70;0.70;;;23.70;53.50;;;;;;5031713;28;20139;-60
2021/11/19 11:04:38;;;;;;;0.98;0.60;;;23.80;53.50;;;;;;5033626;28;20064;-59
2021/11/19 11:07:19;;;;;;;1.83;0.77;;;23.80;53.70;;;;;;5037008;28;20135;-59
2021/11/19 11:09:48;;;;;;;0.73;0.60;;;23.80;53.60;;;;;;5034830;28;20111;-59
2021/11/19 11:12:24;;;;;;;1.10;0.70;;;23.80;53.90;;;;;;5029342;28;20072;-55
2021/11/19 11:15:16;;;;;;;0.93;0.70;;;23.90;53.60;;;;;;5031869;28;20512;-56
2021/11/19 11:18:03;;;;;;;0.98;0.70;;;23.90;53.60;;;;;;5030621;28;20032;-59
2021/11/19 11:20:28;;;;;;;0.80;0.60;;;23.90;53.60;;;;;;5031004;28;20099;-60
2021/11/19 11:22:57;;;;;;;0.73;0.70;;;23.90;53.70;;;;;;5033333;28;20060;-59
2021/11/19 11:25:31;;;;;;;1.02;0.70;;;23.90;53.60;;;;;;5030123;28;20086;-60
2021/11/19 11:28:02;;;;;;;0.77;0.70;;;23.90;53.60;;;;;;5040707;28;20056;-59
2021/11/19 11:30:58;;;;;;;0.95;0.68;;;23.90;53.50;;;;;;5027256;28;20401;-57
2021/11/19 11:33:47;;;;;;;1.90;1.00;;;23.90;53.40;;;;;;5031710;28;20063;-59
2021/11/19 11:36:19;;;;;;;;;;;23.90;52.20;;;;;;5032787;28;20032;-59
2021/11/19 11:39:03;;;;;;;2.75;1.40;;;23.90;50.10;;;;;;5029006;28;20693;-59
2021/11/19 11:41:45;;;;;;;1.92;1.15;;;23.90;49.40;;;;;;5033087;28;20017;-59
2021/11/19 11:44:13;;;;;;;2.22;1.35;;;23.80;49.00;;;;;;5035871;28;21377;-58
2021/11/19 11:46:50;;;;;;;2.42;1.25;;;23.80;49.40;;;;;;5033598;28;20028;-60
2021/11/19 11:49:31;;;;;;;1.45;1.10;;;23.70;49.20;;;;;;5027958;28;20091;-59
2021/11/19 11:52:15;;;;;;;2.00;1.20;;;23.70;49.30;;;;;;5030252;28;20107;-60
2021/11/19 11:54:59;;;;;;;2.47;1.38;;;23.70;49.00;;;;;;5033555;28;20037;-57
2021/11/19 11:57:38;;;;;;;2.80;1.30;;;23.70;49.10;;;;;;5031064;28;20150;-59
2021/11/19 12:00:41;;;;;;;2.13;1.40;;;23.60;49.00;;;;;;5031222;28;20446;-59
2021/11/19 12:03:14;;;;;;;2.00;1.20;;;23.60;49.00;;;;;;5003777;28;20056;-59
2021/11/19 12:05:55;;;;;;;1.80;1.17;;;23.60;48.90;;;;;;5027530;28;20029;-58
2021/11/19 12:08:48;;;;;;;3.17;1.40;;;23.60;49.10;;;;;;5028822;28;20072;-58
2021/11/19 12:11:55;;;;;;;2.78;1.30;;;23.50;49.00;;;;;;5037759;28;20414;-58
2021/11/19 12:14:33;;;;;;;2.72;1.20;;;23.50;49.20;;;;;;5035327;28;20032;-60
2021/11/19 12:17:13;;;;;;;2.28;1.23;;;23.50;49.20;;;;;;5038632;28;20022;-59
2021/11/19 12:19:47;;;;;;;2.75;1.30;;;23.50;49.30;;;;;;5032000;28;20092;-57
2021/11/19 12:22:23;;;;;;;2.58;1.30;;;23.50;49.20;;;;;;5039108;28;20025;-59
2021/11/19 12:24:55;;;;;;;2.45;1.23;;;23.50;49.40;;;;;;5030727;28;20026;-58
2021/11/19 12:27:34;;;;;;;1.80;1.20;;;23.40;49.30;;;;;;5033575;28;20026;-57
2021/11/19 12:30:28;;;;;;;1.92;1.25;;;23.40;49.30;;;;;;5034551;28;20047;-59
2021/11/19 12:33:17;;;;;;;2.70;1.33;;;23.40;49.50;;;;;;5039773;28;20124;-59
2021/11/19 12:36:06;;;;;;;3.85;1.38;;;23.40;49.50;;;;;;5033531;28;20057;-60
2021/11/19 12:38:36;;;;;;;2.42;1.40;;;23.40;49.50;;;;;;5032386;28;20034;-60
2021/11/19 12:41:29;;;;;;;3.70;1.45;;;23.40;49.60;;;;;;5028714;28;20048;-59
2021/11/19 12:44:22;;;;;;;1.85;1.20;;;23.40;49.70;;;;;;5036439;28;20075;-57
2021/11/19 12:47:13;;;;;;;2.95;1.08;;;23.40;49.70;;;;;;5028782;28;20038;-59
2021/11/19 12:50:05;;;;;;;2.00;1.30;;;23.30;49.60;;;;;;5029082;28;20028;-60
2021/11/19 12:52:35;;;;;;;4.85;1.40;;;23.30;49.80;;;;;;5034394;28;20044;-59
2021/11/19 12:55:43;;;;;;;2.80;1.35;;;23.30;50.00;;;;;;5025165;28;20030;-56
2021/11/19 12:58:47;;;;;;;2.20;1.25;;;23.30;50.00;;;;;;5030083;28;20079;-57
2021/11/19 13:01:23;;;;;;;2.83;1.20;;;23.30;50.00;;;;;;5036158;28;20033;-60
2021/11/19 13:04:26;;;;;;;2.95;1.40;;;23.30;50.00;;;;;;5029812;28;20060;-60
2021/11/19 13:06:59;;;;;;;1.83;1.15;;;23.30;50.10;;;;;;5032490;28;20029;-57
2021/11/19 13:09:40;;;;;;;2.28;1.10;;;23.30;50.10;;;;;;5033843;28;20079;-60
2021/11/19 13:12:34;;;;;;;2.08;1.10;;;23.30;50.20;;;;;;5036677;28;20033;-60